Terminal Aerodrome Forecast
Issued by NWS

Home | Current Version | Previous Version | Text Only | Print | Product List | Glossary On
Versions: 1 2 3 4 5 6 7 8 9 10 11 12 13 14 15 16 17 18
000
FTUS41 KPHI 301100
TAFPNE
TAF
KPNE 301128Z 3012/3112 VRB03KT P6SM SCT080
     FM301500 28006KT P6SM SCT050
     FM310000 23006KT P6SM FEW050=

USA.gov is the U.S. government's official web portal to all federal, state and local government web resources and services.